sensor_id;sensor_type;location;lat;lon;timestamp;pressure;altitude;pressure_sealevel;temperature;humidity
41467;BME280;72625;53.700;19.958;2023-09-18T00:04:27;100432.44;;;17.95;76.63
41467;BME280;72625;53.700;19.958;2023-09-18T00:09:29;100421.49;;;17.82;76.64
41467;BME280;72625;53.700;19.958;2023-09-18T00:14:32;100414.46;;;17.74;76.70
41467;BME280;72625;53.700;19.958;2023-09-18T00:19:36;100410.30;;;17.63;76.71
41467;BME280;72625;53.700;19.958;2023-09-18T00:24:38;100405.65;;;17.54;76.85
41467;BME280;72625;53.700;19.958;2023-09-18T00:29:41;100406.44;;;17.32;76.97
41467;BME280;72625;53.700;19.958;2023-09-18T00:34:43;100404.63;;;17.20;77.41
41467;BME280;72625;53.700;19.958;2023-09-18T00:39:46;100400.02;;;17.16;77.75
41467;BME280;72625;53.700;19.958;2023-09-18T00:44:48;100401.17;;;17.11;77.95
41467;BME280;72625;53.700;19.958;2023-09-18T00:49:52;100404.46;;;17.13;78.78
41467;BME280;72625;53.700;19.958;2023-09-18T00:54:54;100397.89;;;17.15;78.80
41467;BME280;72625;53.700;19.958;2023-09-18T00:59:57;100400.68;;;17.20;79.11
41467;BME280;72625;53.700;19.958;2023-09-18T01:04:59;100401.25;;;17.20;79.50
41467;BME280;72625;53.700;19.958;2023-09-18T01:10:01;100394.70;;;17.19;80.07
41467;BME280;72625;53.700;19.958;2023-09-18T01:15:14;100384.94;;;17.21;79.68
41467;BME280;72625;53.700;19.958;2023-09-18T01:20:19;100383.00;;;17.15;81.24
41467;BME280;72625;53.700;19.958;2023-09-18T01:25:21;100382.64;;;17.06;80.93
41467;BME280;72625;53.700;19.958;2023-09-18T01:30:23;100386.17;;;17.02;80.91
41467;BME280;72625;53.700;19.958;2023-09-18T01:35:26;100381.45;;;16.95;81.51
41467;BME280;72625;53.700;19.958;2023-09-18T01:40:31;100383.05;;;16.85;81.48
41467;BME280;72625;53.700;19.958;2023-09-18T01:45:34;100386.68;;;16.84;81.65
41467;BME280;72625;53.700;19.958;2023-09-18T01:50:37;100381.63;;;16.81;82.17
41467;BME280;72625;53.700;19.958;2023-09-18T01:55:41;100374.23;;;16.73;83.26
41467;BME280;72625;53.700;19.958;2023-09-18T02:00:43;100373.27;;;16.74;82.41
41467;BME280;72625;53.700;19.958;2023-09-18T02:05:46;100371.83;;;16.70;81.84
41467;BME280;72625;53.700;19.958;2023-09-18T02:10:49;100370.25;;;16.69;82.40
41467;BME280;72625;53.700;19.958;2023-09-18T02:15:51;100361.89;;;16.63;81.80
41467;BME280;72625;53.700;19.958;2023-09-18T02:20:53;100365.92;;;16.60;81.69
41467;BME280;72625;53.700;19.958;2023-09-18T02:25:58;100363.39;;;16.55;81.59
41467;BME280;72625;53.700;19.958;2023-09-18T02:31:00;100358.54;;;16.55;81.72
41467;BME280;72625;53.700;19.958;2023-09-18T02:36:02;100354.33;;;16.54;81.99
41467;BME280;72625;53.700;19.958;2023-09-18T02:41:04;100351.67;;;16.60;82.43
41467;BME280;72625;53.700;19.958;2023-09-18T02:46:08;100348.45;;;16.65;82.78
41467;BME280;72625;53.700;19.958;2023-09-18T02:51:10;100350.11;;;16.67;82.74
41467;BME280;72625;53.700;19.958;2023-09-18T02:56:12;100345.70;;;16.60;82.73
41467;BME280;72625;53.700;19.958;2023-09-18T03:01:14;100349.84;;;16.56;83.10
41467;BME280;72625;53.700;19.958;2023-09-18T03:06:16;100347.70;;;16.53;83.34
41467;BME280;72625;53.700;19.958;2023-09-18T03:11:18;100340.00;;;16.48;83.36
41467;BME280;72625;53.700;19.958;2023-09-18T03:16:20;100340.50;;;16.48;83.73
41467;BME280;72625;53.700;19.958;2023-09-18T03:21:22;100336.39;;;16.43;84.91
41467;BME280;72625;53.700;19.958;2023-09-18T03:26:24;100334.81;;;16.42;84.78
41467;BME280;72625;53.700;19.958;2023-09-18T03:31:26;100333.62;;;16.42;84.79
41467;BME280;72625;53.700;19.958;2023-09-18T03:36:27;100326.14;;;16.44;84.73
41467;BME280;72625;53.700;19.958;2023-09-18T03:41:29;100318.50;;;16.45;85.09
41467;BME280;72625;53.700;19.958;2023-09-18T03:46:38;100313.49;;;16.43;85.60
41467;BME280;72625;53.700;19.958;2023-09-18T03:51:40;100315.20;;;16.38;86.32
41467;BME280;72625;53.700;19.958;2023-09-18T03:56:42;100312.83;;;16.32;85.68
41467;BME280;72625;53.700;19.958;2023-09-18T04:01:44;100307.09;;;16.26;87.06
41467;BME280;72625;53.700;19.958;2023-09-18T04:06:47;100305.46;;;16.24;86.48
41467;BME280;72625;53.700;19.958;2023-09-18T04:11:49;100306.27;;;16.24;87.40
41467;BME280;72625;53.700;19.958;2023-09-18T04:16:51;100303.96;;;16.28;86.80
41467;BME280;72625;53.700;19.958;2023-09-18T04:21:55;100302.20;;;16.28;87.91
41467;BME280;72625;53.700;19.958;2023-09-18T04:26:57;100295.38;;;16.28;87.30
41467;BME280;72625;53.700;19.958;2023-09-18T04:31:59;100299.15;;;16.24;87.11
41467;BME280;72625;53.700;19.958;2023-09-18T04:37:01;100294.20;;;16.29;86.96
41467;BME280;72625;53.700;19.958;2023-09-18T04:42:08;100295.23;;;16.31;86.58
41467;BME280;72625;53.700;19.958;2023-09-18T04:47:11;100294.30;;;16.33;86.32
41467;BME280;72625;53.700;19.958;2023-09-18T04:52:13;100291.28;;;16.35;86.27
41467;BME280;72625;53.700;19.958;2023-09-18T04:57:16;100282.38;;;16.34;86.32
41467;BME280;72625;53.700;19.958;2023-09-18T05:02:21;100280.91;;;16.34;86.40
41467;BME280;72625;53.700;19.958;2023-09-18T05:07:26;100277.04;;;16.40;86.73
41467;BME280;72625;53.700;19.958;2023-09-18T05:12:28;100277.52;;;16.44;86.83
41467;BME280;72625;53.700;19.958;2023-09-18T05:17:59;100274.34;;;16.50;87.06
41467;BME280;72625;53.700;19.958;2023-09-18T05:23:03;100266.68;;;16.64;87.24
41467;BME280;72625;53.700;19.958;2023-09-18T05:28:05;100262.20;;;16.76;87.21
41467;BME280;72625;53.700;19.958;2023-09-18T05:33:07;100259.33;;;16.95;87.32
41467;BME280;72625;53.700;19.958;2023-09-18T05:38:12;100252.54;;;17.13;87.17
41467;BME280;72625;53.700;19.958;2023-09-18T05:43:19;100245.72;;;17.34;86.81
41467;BME280;72625;53.700;19.958;2023-09-18T05:48:21;100246.34;;;17.57;86.88
41467;BME280;72625;53.700;19.958;2023-09-18T05:53:23;100246.29;;;17.71;86.82
41467;BME280;72625;53.700;19.958;2023-09-18T05:58:25;100244.38;;;17.85;86.91
41467;BME280;72625;53.700;19.958;2023-09-18T06:03:28;100247.88;;;17.99;86.98
41467;BME280;72625;53.700;19.958;2023-09-18T06:08:32;100247.23;;;18.19;86.84
41467;BME280;72625;53.700;19.958;2023-09-18T06:13:35;100251.55;;;18.32;86.69
41467;BME280;72625;53.700;19.958;2023-09-18T06:18:37;100252.73;;;18.56;86.49
41467;BME280;72625;53.700;19.958;2023-09-18T06:23:40;100251.90;;;18.73;86.16
41467;BME280;72625;53.700;19.958;2023-09-18T06:28:42;100256.33;;;18.91;85.78
41467;BME280;72625;53.700;19.958;2023-09-18T06:33:44;100265.05;;;19.05;85.35
41467;BME280;72625;53.700;19.958;2023-09-18T06:38:47;100258.23;;;19.23;85.29
41467;BME280;72625;53.700;19.958;2023-09-18T06:43:49;100254.72;;;19.40;85.18
41467;BME280;72625;53.700;19.958;2023-09-18T06:48:51;100242.73;;;19.59;84.98
41467;BME280;72625;53.700;19.958;2023-09-18T06:53:54;100236.17;;;19.78;84.69
41467;BME280;72625;53.700;19.958;2023-09-18T06:58:58;100240.60;;;19.86;84.56
41467;BME280;72625;53.700;19.958;2023-09-18T07:04:00;100239.34;;;19.93;84.17
41467;BME280;72625;53.700;19.958;2023-09-18T07:09:03;100234.34;;;20.01;83.94
41467;BME280;72625;53.700;19.958;2023-09-18T07:14:11;100233.60;;;20.15;83.74
41467;BME280;72625;53.700;19.958;2023-09-18T07:19:13;100228.46;;;20.30;83.64
41467;BME280;72625;53.700;19.958;2023-09-18T07:24:18;100233.02;;;20.43;82.56
41467;BME280;72625;53.700;19.958;2023-09-18T07:29:22;100232.74;;;20.62;82.91
41467;BME280;72625;53.700;19.958;2023-09-18T07:34:26;100229.62;;;20.83;82.88
41467;BME280;72625;53.700;19.958;2023-09-18T07:39:28;100228.13;;;21.03;81.57
41467;BME280;72625;53.700;19.958;2023-09-18T07:44:32;100225.69;;;21.18;81.70
41467;BME280;72625;53.700;19.958;2023-09-18T07:49:34;100216.97;;;21.33;81.13
41467;BME280;72625;53.700;19.958;2023-09-18T07:54:35;100210.11;;;21.38;79.56
41467;BME280;72625;53.700;19.958;2023-09-18T07:59:37;100210.11;;;21.48;79.85
41467;BME280;72625;53.700;19.958;2023-09-18T08:04:41;100214.18;;;21.64;79.31
41467;BME280;72625;53.700;19.958;2023-09-18T08:09:44;100209.91;;;21.75;78.11
41467;BME280;72625;53.700;19.958;2023-09-18T08:14:46;100207.98;;;21.91;78.44
41467;BME280;72625;53.700;19.958;2023-09-18T08:19:52;100203.32;;;22.10;77.33
41467;BME280;72625;53.700;19.958;2023-09-18T08:24:54;100205.69;;;22.30;77.71
41467;BME280;72625;53.700;19.958;2023-09-18T08:29:56;100202.79;;;22.51;76.99
41467;BME280;72625;53.700;19.958;2023-09-18T08:34:59;100204.03;;;22.67;76.69
41467;BME280;72625;53.700;19.958;2023-09-18T08:40:01;100203.10;;;22.78;76.98
41467;BME280;72625;53.700;19.958;2023-09-18T08:45:15;100196.86;;;23.10;75.07
41467;BME280;72625;53.700;19.958;2023-09-18T08:50:22;100188.70;;;23.30;74.30
41467;BME280;72625;53.700;19.958;2023-09-18T08:55:27;100178.58;;;23.47;74.16
41467;BME280;72625;53.700;19.958;2023-09-18T09:00:30;100177.64;;;23.65;74.32
41467;BME280;72625;53.700;19.958;2023-09-18T09:05:32;100171.43;;;23.70;73.38
41467;BME280;72625;53.700;19.958;2023-09-18T09:10:34;100169.66;;;23.73;71.13
41467;BME280;72625;53.700;19.958;2023-09-18T09:15:45;100159.32;;;23.85;71.10
41467;BME280;72625;53.700;19.958;2023-09-18T09:21:01;100156.52;;;24.01;71.17
41467;BME280;72625;53.700;19.958;2023-09-18T09:26:14;100149.27;;;24.16;70.66
41467;BME280;72625;53.700;19.958;2023-09-18T09:31:27;100143.48;;;24.30;69.72
41467;BME280;72625;53.700;19.958;2023-09-18T09:36:30;100132.50;;;24.35;68.50
41467;BME280;72625;53.700;19.958;2023-09-18T09:41:33;100124.89;;;24.52;68.14
41467;BME280;72625;53.700;19.958;2023-09-18T09:46:35;100118.20;;;24.76;68.50
41467;BME280;72625;53.700;19.958;2023-09-18T09:51:37;100110.61;;;24.93;66.74
41467;BME280;72625;53.700;19.958;2023-09-18T09:56:47;100109.46;;;25.03;66.98
41467;BME280;72625;53.700;19.958;2023-09-18T10:01:50;100101.53;;;25.24;66.48
41467;BME280;72625;53.700;19.958;2023-09-18T10:06:57;100096.86;;;25.44;66.26
41467;BME280;72625;53.700;19.958;2023-09-18T10:12:00;100082.14;;;25.60;64.70
41467;BME280;72625;53.700;19.958;2023-09-18T10:17:24;100083.33;;;25.73;65.57
41467;BME280;72625;53.700;19.958;2023-09-18T10:22:38;100082.70;;;25.92;62.32
41467;BME280;72625;53.700;19.958;2023-09-18T10:27:42;100074.69;;;26.15;62.67
41467;BME280;72625;53.700;19.958;2023-09-18T10:32:46;100065.38;;;26.28;59.62
41467;BME280;72625;53.700;19.958;2023-09-18T10:37:49;100063.63;;;26.50;60.75
41467;BME280;72625;53.700;19.958;2023-09-18T10:42:57;100068.50;;;26.59;60.05
41467;BME280;72625;53.700;19.958;2023-09-18T10:48:00;100056.60;;;26.49;59.52
41467;BME280;72625;53.700;19.958;2023-09-18T10:53:02;100050.84;;;26.70;59.94
41467;BME280;72625;53.700;19.958;2023-09-18T10:58:05;100049.64;;;26.89;59.31
41467;BME280;72625;53.700;19.958;2023-09-18T11:03:12;100039.08;;;26.91;59.18
41467;BME280;72625;53.700;19.958;2023-09-18T11:13:31;100027.54;;;26.98;58.45
41467;BME280;72625;53.700;19.958;2023-09-18T11:18:36;100026.95;;;26.90;57.06
41467;BME280;72625;53.700;19.958;2023-09-18T11:23:39;100024.95;;;26.91;57.62
41467;BME280;72625;53.700;19.958;2023-09-18T11:28:47;100016.42;;;26.83;56.93
41467;BME280;72625;53.700;19.958;2023-09-18T11:33:52;100007.19;;;26.84;55.87
41467;BME280;72625;53.700;19.958;2023-09-18T11:38:58;100001.98;;;26.98;54.95
41467;BME280;72625;53.700;19.958;2023-09-18T11:49:19;99993.01;;;27.18;53.35
41467;BME280;72625;53.700;19.958;2023-09-18T11:54:23;99989.44;;;27.20;53.80
41467;BME280;72625;53.700;19.958;2023-09-18T11:59:38;99991.27;;;27.21;53.17
41467;BME280;72625;53.700;19.958;2023-09-18T12:04:47;99997.88;;;27.36;53.82
41467;BME280;72625;53.700;19.958;2023-09-18T12:09:50;99994.70;;;27.32;53.79
41467;BME280;72625;53.700;19.958;2023-09-18T12:14:52;99983.23;;;27.25;53.37
41467;BME280;72625;53.700;19.958;2023-09-18T12:19:55;99967.80;;;27.09;51.97
41467;BME280;72625;53.700;19.958;2023-09-18T12:25:10;99959.30;;;27.18;51.47
41467;BME280;72625;53.700;19.958;2023-09-18T12:30:17;99964.55;;;27.32;51.69
41467;BME280;72625;53.700;19.958;2023-09-18T12:35:23;99960.86;;;27.37;52.11
41467;BME280;72625;53.700;19.958;2023-09-18T12:40:31;99948.26;;;27.35;51.93
41467;BME280;72625;53.700;19.958;2023-09-18T12:45:36;99934.33;;;27.28;51.62
41467;BME280;72625;53.700;19.958;2023-09-18T12:50:41;99934.41;;;27.24;51.12
41467;BME280;72625;53.700;19.958;2023-09-18T12:55:43;99934.94;;;27.13;50.71
41467;BME280;72625;53.700;19.958;2023-09-18T13:00:47;99928.77;;;27.11;50.78
41467;BME280;72625;53.700;19.958;2023-09-18T13:06:06;99918.20;;;27.09;50.91
41467;BME280;72625;53.700;19.958;2023-09-18T13:11:09;99914.53;;;26.87;50.56
41467;BME280;72625;53.700;19.958;2023-09-18T13:16:13;99901.66;;;26.76;50.55
41467;BME280;72625;53.700;19.958;2023-09-18T13:21:16;99894.23;;;26.76;50.89
41467;BME280;72625;53.700;19.958;2023-09-18T13:26:22;99889.02;;;26.80;50.62
41467;BME280;72625;53.700;19.958;2023-09-18T13:31:24;99889.91;;;26.75;50.02
41467;BME280;72625;53.700;19.958;2023-09-18T13:36:26;99877.88;;;26.70;50.36
41467;BME280;72625;53.700;19.958;2023-09-18T13:41:29;99863.92;;;26.58;50.36
41467;BME280;72625;53.700;19.958;2023-09-18T13:46:33;99859.45;;;26.49;50.30
41467;BME280;72625;53.700;19.958;2023-09-18T13:51:40;99850.33;;;26.45;50.30
41467;BME280;72625;53.700;19.958;2023-09-18T13:56:43;99844.90;;;26.52;49.81
41467;BME280;72625;53.700;19.958;2023-09-18T14:01:45;99841.95;;;26.63;50.26
41467;BME280;72625;53.700;19.958;2023-09-18T14:06:48;99840.23;;;26.69;49.93
41467;BME280;72625;53.700;19.958;2023-09-18T14:11:50;99828.66;;;26.62;49.43
41467;BME280;72625;53.700;19.958;2023-09-18T14:16:52;99824.48;;;26.53;49.85
41467;BME280;72625;53.700;19.958;2023-09-18T14:21:59;99821.86;;;26.44;49.65
41467;BME280;72625;53.700;19.958;2023-09-18T14:27:06;99815.00;;;26.26;49.73
41467;BME280;72625;53.700;19.958;2023-09-18T14:32:10;99811.24;;;26.18;49.92
41467;BME280;72625;53.700;19.958;2023-09-18T14:37:13;99804.25;;;26.20;49.80
41467;BME280;72625;53.700;19.958;2023-09-18T14:42:15;99795.85;;;26.25;49.87
41467;BME280;72625;53.700;19.958;2023-09-18T14:47:20;99791.64;;;26.28;49.51
41467;BME280;72625;53.700;19.958;2023-09-18T14:52:25;99786.57;;;26.27;49.47
41467;BME280;72625;53.700;19.958;2023-09-18T14:57:27;99785.38;;;26.31;49.69
41467;BME280;72625;53.700;19.958;2023-09-18T15:02:29;99780.33;;;26.30;49.84
41467;BME280;72625;53.700;19.958;2023-09-18T15:07:33;99782.41;;;26.19;49.85
41467;BME280;72625;53.700;19.958;2023-09-18T15:12:35;99779.73;;;26.04;50.13
41467;BME280;72625;53.700;19.958;2023-09-18T15:17:37;99773.08;;;25.94;50.22
41467;BME280;72625;53.700;19.958;2023-09-18T15:22:40;99772.54;;;25.87;50.19
41467;BME280;72625;53.700;19.958;2023-09-18T15:27:44;99764.77;;;25.74;50.38
41467;BME280;72625;53.700;19.958;2023-09-18T15:32:52;99763.45;;;25.59;50.45
41467;BME280;72625;53.700;19.958;2023-09-18T15:37:55;99760.06;;;25.46;50.58
41467;BME280;72625;53.700;19.958;2023-09-18T15:42:57;99757.45;;;25.35;50.70
41467;BME280;72625;53.700;19.958;2023-09-18T15:48:02;99756.11;;;25.21;50.93
41467;BME280;72625;53.700;19.958;2023-09-18T15:53:06;99747.38;;;25.05;51.05
41467;BME280;72625;53.700;19.958;2023-09-18T15:58:08;99741.48;;;24.89;51.20
41467;BME280;72625;53.700;19.958;2023-09-18T16:03:12;99731.77;;;24.74;51.44
41467;BME280;72625;53.700;19.958;2023-09-18T16:08:14;99729.45;;;24.60;51.67
41467;BME280;72625;53.700;19.958;2023-09-18T16:13:16;99730.20;;;24.50;51.97
41467;BME280;72625;53.700;19.958;2023-09-18T16:18:18;99723.31;;;24.39;52.10
41467;BME280;72625;53.700;19.958;2023-09-18T16:23:20;99719.84;;;24.30;52.11
41467;BME280;72625;53.700;19.958;2023-09-18T16:28:22;99718.55;;;24.21;52.51
41467;BME280;72625;53.700;19.958;2023-09-18T16:33:24;99713.16;;;24.09;52.54
41467;BME280;72625;53.700;19.958;2023-09-18T16:38:27;99705.79;;;24.02;52.73
41467;BME280;72625;53.700;19.958;2023-09-18T16:43:29;99707.10;;;23.95;52.77
41467;BME280;72625;53.700;19.958;2023-09-18T16:48:37;99708.29;;;23.83;52.99
41467;BME280;72625;53.700;19.958;2023-09-18T16:53:39;99698.02;;;23.73;53.25
41467;BME280;72625;53.700;19.958;2023-09-18T16:58:42;99693.53;;;23.61;53.51
41467;BME280;72625;53.700;19.958;2023-09-18T17:03:45;99690.96;;;23.52;53.80
41467;BME280;72625;53.700;19.958;2023-09-18T17:08:47;99681.86;;;23.43;53.99
41467;BME280;72625;53.700;19.958;2023-09-18T17:13:52;99673.86;;;23.35;54.18
41467;BME280;72625;53.700;19.958;2023-09-18T17:18:54;99672.97;;;23.27;54.28
41467;BME280;72625;53.700;19.958;2023-09-18T17:23:57;99668.70;;;23.21;54.53
41467;BME280;72625;53.700;19.958;2023-09-18T17:29:03;99666.61;;;23.13;54.75
41467;BME280;72625;53.700;19.958;2023-09-18T17:34:05;99657.20;;;23.04;55.22
41467;BME280;72625;53.700;19.958;2023-09-18T17:39:07;99659.34;;;22.98;55.18
41467;BME280;72625;53.700;19.958;2023-09-18T17:44:11;99663.23;;;22.91;55.49
41467;BME280;72625;53.700;19.958;2023-09-18T17:49:14;99666.05;;;22.82;55.55
41467;BME280;72625;53.700;19.958;2023-09-18T17:54:16;99664.02;;;22.73;55.79
41467;BME280;72625;53.700;19.958;2023-09-18T17:59:21;99667.33;;;22.65;55.78
41467;BME280;72625;53.700;19.958;2023-09-18T18:04:24;99668.14;;;22.57;56.02
41467;BME280;72625;53.700;19.958;2023-09-18T18:09:26;99664.19;;;22.50;56.40
41467;BME280;72625;53.700;19.958;2023-09-18T18:14:28;99666.70;;;22.41;56.48
41467;BME280;72625;53.700;19.958;2023-09-18T18:19:31;99670.56;;;22.33;56.65
41467;BME280;72625;53.700;19.958;2023-09-18T18:24:35;99671.77;;;22.25;56.79
41467;BME280;72625;53.700;19.958;2023-09-18T18:29:37;99670.08;;;22.14;56.96
41467;BME280;72625;53.700;19.958;2023-09-18T18:34:40;99666.09;;;22.07;57.10
41467;BME280;72625;53.700;19.958;2023-09-18T18:39:43;99666.77;;;22.00;57.41
41467;BME280;72625;53.700;19.958;2023-09-18T18:44:45;99663.69;;;21.89;57.48
41467;BME280;72625;53.700;19.958;2023-09-18T18:49:49;99661.38;;;21.77;57.67
41467;BME280;72625;53.700;19.958;2023-09-18T18:54:58;99653.20;;;21.69;57.78
41467;BME280;72625;53.700;19.958;2023-09-18T19:00:00;99651.32;;;21.60;58.17
41467;BME280;72625;53.700;19.958;2023-09-18T19:05:03;99647.06;;;21.53;58.36
41467;BME280;72625;53.700;19.958;2023-09-18T19:10:06;99636.64;;;21.48;58.63
41467;BME280;72625;53.700;19.958;2023-09-18T19:15:09;99634.85;;;21.41;58.75
41467;BME280;72625;53.700;19.958;2023-09-18T19:20:11;99630.92;;;21.33;59.03
41467;BME280;72625;53.700;19.958;2023-09-18T19:25:14;99628.55;;;21.25;59.23
41467;BME280;72625;53.700;19.958;2023-09-18T19:30:16;99620.30;;;21.16;59.41
41467;BME280;72625;53.700;19.958;2023-09-18T19:35:18;99614.40;;;21.09;59.93
41467;BME280;72625;53.700;19.958;2023-09-18T19:40:20;99606.15;;;21.05;59.79
41467;BME280;72625;53.700;19.958;2023-09-18T19:45:23;99603.02;;;21.01;60.06
41467;BME280;72625;53.700;19.958;2023-09-18T19:50:30;99597.98;;;20.95;60.16
41467;BME280;72625;53.700;19.958;2023-09-18T19:55:41;99591.46;;;20.87;60.47
41467;BME280;72625;53.700;19.958;2023-09-18T20:00:44;99590.85;;;20.81;60.65
41467;BME280;72625;53.700;19.958;2023-09-18T20:05:46;99587.71;;;20.78;61.00
41467;BME280;72625;53.700;19.958;2023-09-18T20:10:51;99583.39;;;20.76;60.90
41467;BME280;72625;53.700;19.958;2023-09-18T20:15:57;99576.45;;;20.72;61.03
41467;BME280;72625;53.700;19.958;2023-09-18T20:21:01;99569.92;;;20.63;61.54
41467;BME280;72625;53.700;19.958;2023-09-18T20:26:06;99563.61;;;20.52;61.75
41467;BME280;72625;53.700;19.958;2023-09-18T20:31:08;99563.02;;;20.46;61.81
41467;BME280;72625;53.700;19.958;2023-09-18T20:36:11;99553.10;;;20.41;62.01
41467;BME280;72625;53.700;19.958;2023-09-18T20:41:13;99556.74;;;20.36;62.46
41467;BME280;72625;53.700;19.958;2023-09-18T20:46:15;99551.09;;;20.29;62.77
41467;BME280;72625;53.700;19.958;2023-09-18T20:51:18;99548.41;;;20.27;62.81
41467;BME280;72625;53.700;19.958;2023-09-18T20:56:20;99544.11;;;20.24;62.95
41467;BME280;72625;53.700;19.958;2023-09-18T21:01:23;99543.02;;;20.19;63.22
41467;BME280;72625;53.700;19.958;2023-09-18T21:06:25;99543.10;;;20.13;63.44
41467;BME280;72625;53.700;19.958;2023-09-18T21:11:28;99543.71;;;20.11;63.59
41467;BME280;72625;53.700;19.958;2023-09-18T21:16:31;99539.52;;;20.12;63.71
41467;BME280;72625;53.700;19.958;2023-09-18T21:21:33;99539.80;;;20.15;63.89
41467;BME280;72625;53.700;19.958;2023-09-18T21:26:35;99535.92;;;20.19;64.13
41467;BME280;72625;53.700;19.958;2023-09-18T21:31:37;99535.84;;;20.21;64.22
41467;BME280;72625;53.700;19.958;2023-09-18T21:36:39;99532.35;;;20.20;64.50
41467;BME280;72625;53.700;19.958;2023-09-18T21:41:41;99525.33;;;20.16;64.65
41467;BME280;72625;53.700;19.958;2023-09-18T21:46:44;99519.36;;;20.17;64.69
41467;BME280;72625;53.700;19.958;2023-09-18T21:51:46;99512.58;;;20.24;65.22
41467;BME280;72625;53.700;19.958;2023-09-18T21:56:48;99510.69;;;20.32;65.26
41467;BME280;72625;53.700;19.958;2023-09-18T22:01:50;99502.55;;;20.35;65.60
41467;BME280;72625;53.700;19.958;2023-09-18T22:06:56;99497.80;;;20.38;65.77
41467;BME280;72625;53.700;19.958;2023-09-18T22:11:57;99490.70;;;20.37;66.11
41467;BME280;72625;53.700;19.958;2023-09-18T22:17:04;99485.41;;;20.33;66.00
41467;BME280;72625;53.700;19.958;2023-09-18T22:22:06;99482.66;;;20.31;65.96
41467;BME280;72625;53.700;19.958;2023-09-18T22:27:08;99479.95;;;20.31;66.19
41467;BME280;72625;53.700;19.958;2023-09-18T22:32:11;99473.33;;;20.28;66.37
41467;BME280;72625;53.700;19.958;2023-09-18T22:37:13;99471.77;;;20.25;66.58
41467;BME280;72625;53.700;19.958;2023-09-18T22:57:59;99446.41;;;20.34;67.20
41467;BME280;72625;53.700;19.958;2023-09-18T23:03:07;99442.27;;;20.28;68.15
41467;BME280;72625;53.700;19.958;2023-09-18T23:08:11;99436.95;;;20.26;67.93
41467;BME280;72625;53.700;19.958;2023-09-18T23:13:13;99427.33;;;20.24;68.03
41467;BME280;72625;53.700;19.958;2023-09-18T23:18:15;99417.98;;;20.23;68.68
41467;BME280;72625;53.700;19.958;2023-09-18T23:23:18;99414.59;;;20.22;68.33
41467;BME280;72625;53.700;19.958;2023-09-18T23:28:20;99414.42;;;20.23;68.80
41467;BME280;72625;53.700;19.958;2023-09-18T23:33:22;99408.86;;;20.24;68.93
41467;BME280;72625;53.700;19.958;2023-09-18T23:38:26;99402.13;;;20.21;69.06
41467;BME280;72625;53.700;19.958;2023-09-18T23:43:28;99400.08;;;20.20;69.22
41467;BME280;72625;53.700;19.958;2023-09-18T23:48:35;99395.76;;;20.23;69.29
41467;BME280;72625;53.700;19.958;2023-09-18T23:53:37;99391.42;;;20.22;69.68
41467;BME280;72625;53.700;19.958;2023-09-18T23:58:39;99391.61;;;20.26;69.55
